This is the latest recevied weather packets stored in our database for station/object ED3YAB-7. If no packets are shown the sender has not sent any weather packets the latest 1 day(s).
| Time | Temp. | Humidity | Pressure | Rain* | Wind** | Luminosity | Snow |
|---|---|---|---|---|---|---|---|
| 1778100999 | 13.33° C | 53% | 1018.5 hPa | - | - | - | - |
| 1778099799 | 13.89° C | 51% | 1018.3 hPa | - | - | - | - |
| 1778098606 | 14.44° C | 50% | 1017.9 hPa | - | - | - | - |
| 1778096206 | 15° C | 47% | 1017.3 hPa | - | - | - | - |
| 1778093798 | 16.67° C | 40% | 1016.6 hPa | - | - | - | - |
| 1778092598 | 25° C | 26% | 1016.2 hPa | - | - | - | - |
| 1778089441 | 36.67° C | 15% | 1015.5 hPa | - | - | - | - |
| 1778087041 | 33.89° C | 17% | 1015.2 hPa | - | - | - | - |
| 1778084648 | 30° C | 20% | 1014.9 hPa | - | - | - | - |
| 1778079840 | 43.33° C | 9% | 1015.3 hPa | - | - | - | - |
| 1778078640 | 41.11° C | 9% | 1015.4 hPa | - | - | - | - |
| 1778072641 | 35° C | 14% | 1016.4 hPa | - | - | - | - |
| 1778065440 | 19.44° C | 33% | 1017.1 hPa | - | - | - | - |
| 1778064240 | 18.33° C | 35% | 1017.3 hPa | - | - | - | - |
| 1778060647 | 16.67° C | 44% | 1017.8 hPa | - | - | - | - |
| 1778059439 | 16.11° C | 46% | 1017.9 hPa | - | - | - | - |
| 1778058239 | 16.11° C | 47% | 1018.1 hPa | - | - | - | - |
| 1778057039 | 15.56° C | 48% | 1018.1 hPa | - | - | - | - |
| 1778055839 | 15° C | 51% | 1018 hPa | - | - | - | - |
| 1778051040 | 12.22° C | 59% | 1017.8 hPa | - | - | - | - |
| 1778049847 | 11.67° C | 60% | 1017.7 hPa | - | - | - | - |
| 1778049840 | 11.67° C | 60% | 1017.7 hPa | - | - | - | - |
| 1778043839 | 7.78° C | 69% | 1017.2 hPa | - | - | - | - |
| 1778042639 | 7.78° C | 70% | 1016.9 hPa | - | - | - | - |
| 1778041439 | 8.33° C | 69% | 1017 hPa | - | - | - | - |
* Rain since midnight (hover to see other rain measurements)
** Current wind speed in m/s (hover to see current wind gust speed)